Time;durP1;ratioP1;P1;durP2;ratioP2;P2;SDS_P1;SDS_P2;PMS_P1;PMS_P2;Temp;Humidity;BMP_temperature;BMP_pressure;BME280_temperature;BME280_humidity;BME280_pressure;Samples;Min_cycle;Max_cycle;Signal;HPM_P1;HPM_P2
2022/05/12 00:01:09;;;;;;;12.47;6.80;;;16.60;72.10;;;;;;5099468;28;20702;-86
2022/05/12 00:03:35;;;;;;;15.87;7.23;;;16.60;72.00;;;;;;5067212;28;20188;-85
2022/05/12 00:06:01;;;;;;;15.60;7.00;;;16.50;72.40;;;;;;5075893;28;20683;-86
2022/05/12 00:08:27;;;;;;;12.23;5.65;;;16.50;72.60;;;;;;5076436;28;20228;-86
2022/05/12 00:10:54;;;;;;;13.23;6.77;;;16.50;72.80;;;;;;5058512;28;20199;-86
2022/05/12 00:13:19;;;;;;;14.20;5.60;;;16.40;72.70;;;;;;5057906;28;20184;-86
2022/05/12 00:15:46;;;;;;;15.00;6.97;;;16.40;73.00;;;;;;5058819;28;20190;-86
2022/05/12 00:18:12;;;;;;;12.93;6.65;;;16.40;73.00;;;;;;5043581;28;20688;-86
2022/05/12 00:20:41;;;;;;;12.17;6.20;;;16.40;73.10;;;;;;5060292;28;20203;-85
2022/05/12 00:23:14;;;;;;;18.08;7.50;;;16.40;73.10;;;;;;5087729;28;20257;-85
2022/05/12 00:25:42;;;;;;;9.65;5.80;;;16.40;73.20;;;;;;5120374;28;20175;-85
2022/05/12 00:28:08;;;;;;;16.02;6.00;;;16.40;73.30;;;;;;5095923;28;20621;-85
2022/05/12 00:30:34;;;;;;;14.30;6.75;;;16.30;73.50;;;;;;5081767;28;20198;-85
2022/05/12 00:33:01;;;;;;;15.90;7.15;;;16.30;73.80;;;;;;5081963;28;20182;-85
2022/05/12 00:35:27;;;;;;;13.05;6.78;;;16.30;74.20;;;;;;5081854;28;20187;-85
2022/05/12 00:37:52;;;;;;;22.05;7.80;;;16.20;74.40;;;;;;5063169;28;20177;-86
2022/05/12 00:40:19;;;;;;;15.83;9.50;;;16.30;74.90;;;;;;5063911;28;20203;-85
2022/05/12 00:42:53;;;;;;;12.20;7.60;;;16.30;75.00;;;;;;5064377;28;20219;-86
2022/05/12 00:45:19;;;;;;;20.38;9.05;;;16.20;75.10;;;;;;5066764;28;20183;-86
2022/05/12 00:47:45;;;;;;;14.23;7.77;;;16.20;75.50;;;;;;5068021;28;20172;-86
2022/05/12 00:50:11;;;;;;;11.98;7.45;;;16.20;75.70;;;;;;5063674;28;20180;-86
2022/05/12 00:52:37;;;;;;;15.23;8.90;;;16.20;75.70;;;;;;5082119;28;20180;-85
2022/05/12 00:55:30;;;;;;;24.60;9.63;;;16.20;75.50;;;;;;5085839;28;20179;-86
2022/05/12 00:57:58;;;;;;;23.35;10.15;;;16.10;75.90;;;;;;5070772;28;20426;-86
2022/05/12 01:00:24;;;;;;;20.02;8.45;;;16.10;76.20;;;;;;5104763;28;20196;-86
2022/05/12 01:02:55;;;;;;;17.88;8.65;;;16.10;76.40;;;;;;5071903;28;20180;-86
2022/05/12 01:05:24;;;;;;;19.17;8.73;;;16.10;76.40;;;;;;5076461;28;20172;-86
2022/05/12 01:07:55;;;;;;;19.50;11.00;;;16.10;76.50;;;;;;5059467;28;20187;-86
2022/05/12 01:10:21;;;;;;;22.95;10.70;;;16.10;76.70;;;;;;5059222;28;20188;-86
2022/05/12 01:12:48;;;;;;;25.05;9.75;;;16.10;76.60;;;;;;5059447;28;20687;-86
2022/05/12 01:15:17;;;;;;;17.70;10.13;;;16.10;76.50;;;;;;5061774;28;20180;-87
2022/05/12 01:17:43;;;;;;;21.58;10.98;;;16.10;76.60;;;;;;5083754;28;20198;-86
2022/05/12 01:20:11;;;;;;;18.45;10.23;;;16.00;76.60;;;;;;5092948;28;20195;-85
2022/05/12 01:23:05;;;;;;;24.30;13.15;;;16.10;77.00;;;;;;5089633;28;20186;-85
2022/05/12 01:25:31;;;;;;;17.27;10.85;;;16.10;76.60;;;;;;5065806;28;20628;-85
2022/05/12 01:27:57;;;;;;;19.25;11.07;;;16.00;76.70;;;;;;5079760;28;20180;-85
2022/05/12 01:30:25;;;;;;;19.30;10.70;;;16.00;76.70;;;;;;5096761;28;20176;-85
2022/05/12 01:32:51;;;;;;;20.92;12.18;;;15.90;76.80;;;;;;5096577;28;20596;-85
2022/05/12 01:35:21;;;;;;;22.02;11.27;;;16.00;76.80;;;;;;5096747;28;20225;-86
2022/05/12 01:37:48;;;;;;;23.98;12.25;;;16.10;76.80;;;;;;5078911;28;20203;-86
2022/05/12 01:40:19;;;;;;;26.58;13.00;;;16.10;76.60;;;;;;5078220;28;20202;-86
2022/05/12 01:42:46;;;;;;;18.08;12.65;;;16.00;76.30;;;;;;5078142;28;20254;-86
2022/05/12 01:45:13;;;;;;;23.00;14.07;;;16.00;76.30;;;;;;5078273;28;20361;-86
2022/05/12 01:47:44;;;;;;;18.00;13.65;;;16.10;76.30;;;;;;5077242;28;20207;-85
2022/05/12 01:50:11;;;;;;;23.20;13.68;;;16.10;76.20;;;;;;5078071;28;20290;-86
2022/05/12 01:52:39;;;;;;;25.83;13.55;;;16.10;76.10;;;;;;5061510;28;20184;-86
2022/05/12 01:55:05;;;;;;;29.35;15.27;;;16.10;76.10;;;;;;5077940;28;20265;-87
2022/05/12 01:57:31;;;;;;;24.55;15.05;;;16.20;75.90;;;;;;5077553;28;20648;-86
2022/05/12 01:59:57;;;;;;;22.67;15.57;;;16.20;75.70;;;;;;5095905;28;20210;-86
2022/05/12 02:02:23;;;;;;;24.03;15.47;;;16.20;75.80;;;;;;5077097;28;20172;-86
2022/05/12 02:04:49;;;;;;;26.25;16.40;;;16.20;75.70;;;;;;5083123;28;20191;-86
2022/05/12 02:07:15;;;;;;;17.80;14.10;;;16.30;75.80;;;;;;5085204;28;20187;-86
2022/05/12 02:09:42;;;;;;;22.92;16.60;;;16.30;75.80;;;;;;5087964;28;20221;-86
2022/05/12 02:12:08;;;;;;;24.48;18.08;;;16.30;75.60;;;;;;5096131;28;20191;-86
2022/05/12 02:14:35;;;;;;;20.90;15.10;;;16.20;75.60;;;;;;5076269;28;20182;-86
2022/05/12 02:17:11;;;;;;;30.13;17.75;;;16.20;76.00;;;;;;5094724;28;20188;-86
2022/05/12 02:19:36;;;;;;;24.02;17.50;;;16.20;76.00;;;;;;5076666;28;20206;-86
2022/05/12 02:22:03;;;;;;;32.07;20.10;;;16.20;76.30;;;;;;5094625;28;20207;-86
2022/05/12 02:24:29;;;;;;;34.22;20.17;;;16.20;76.30;;;;;;5096222;28;20171;-86
2022/05/12 02:26:56;;;;;;;31.48;19.08;;;16.10;76.30;;;;;;5096216;28;20175;-85
2022/05/12 02:29:23;;;;;;;31.77;19.02;;;16.10;76.40;;;;;;5096288;28;20643;-85
2022/05/12 02:31:48;;;;;;;23.33;16.75;;;16.10;76.50;;;;;;5089072;28;20182;-85
2022/05/12 02:34:14;;;;;;;27.70;17.97;;;16.20;76.50;;;;;;5078279;28;20180;-85
2022/05/12 02:36:40;;;;;;;30.50;16.53;;;16.10;76.40;;;;;;5077774;28;20263;-85
2022/05/12 02:39:06;;;;;;;31.33;15.50;;;16.10;76.60;;;;;;5077353;28;20682;-85
2022/05/12 02:41:31;;;;;;;27.80;16.10;;;16.10;76.50;;;;;;5077798;28;20222;-85
2022/05/12 02:43:57;;;;;;;29.27;15.47;;;16.10;76.50;;;;;;5076867;28;20472;-85
2022/05/12 02:46:23;;;;;;;21.27;14.93;;;16.00;76.30;;;;;;5077214;28;20188;-85
2022/05/12 02:48:50;;;;;;;28.50;15.43;;;16.10;76.40;;;;;;5077492;28;20330;-85
2022/05/12 02:51:16;;;;;;;31.92;16.73;;;16.10;76.20;;;;;;5060123;28;20187;-85
2022/05/12 02:53:42;;;;;;;29.63;17.15;;;16.10;76.00;;;;;;5077270;28;20276;-85
2022/05/12 02:56:15;;;;;;;29.53;16.33;;;16.10;76.00;;;;;;5076930;28;20211;-86
2022/05/12 02:58:42;;;;;;;30.38;14.07;;;16.10;75.90;;;;;;5095860;28;20675;-86
2022/05/12 03:01:08;;;;;;;21.83;15.23;;;16.10;75.60;;;;;;5100516;28;20195;-85
2022/05/12 03:03:34;;;;;;;30.63;16.48;;;16.10;75.80;;;;;;5083189;28;20674;-84
2022/05/12 03:06:00;;;;;;;21.73;14.53;;;16.10;75.70;;;;;;5083113;28;20262;-85
2022/05/12 03:08:26;;;;;;;26.43;16.10;;;16.00;75.70;;;;;;5082502;28;20230;-85
2022/05/12 03:10:51;;;;;;;22.40;14.40;;;16.10;75.90;;;;;;5082074;28;20191;-86
2022/05/12 03:13:17;;;;;;;30.97;17.63;;;16.10;75.70;;;;;;5081438;28;20179;-85
2022/05/12 03:15:43;;;;;;;27.43;15.63;;;16.10;75.60;;;;;;5083095;28;20590;-85
2022/05/12 03:18:09;;;;;;;30.30;16.20;;;16.10;75.50;;;;;;5083085;28;20200;-85
2022/05/12 03:20:35;;;;;;;32.13;16.33;;;16.00;75.50;;;;;;5101372;28;20454;-85
2022/05/12 03:23:01;;;;;;;29.92;16.80;;;15.90;75.50;;;;;;5083571;28;20176;-85
2022/05/12 03:25:27;;;;;;;24.23;16.42;;;15.90;75.70;;;;;;5064481;28;20548;-85
2022/05/12 03:27:53;;;;;;;30.37;16.87;;;15.80;75.70;;;;;;5063158;28;20169;-85
2022/05/12 03:30:22;;;;;;;33.03;16.43;;;15.80;75.90;;;;;;5049883;28;20418;-85
2022/05/12 03:32:49;;;;;;;26.30;15.48;;;15.70;76.00;;;;;;5070973;28;20414;-85
2022/05/12 03:35:15;;;;;;;26.50;15.05;;;15.70;76.20;;;;;;5065516;28;20187;-85
2022/05/12 03:37:41;;;;;;;30.30;16.02;;;15.70;76.30;;;;;;5067044;28;20187;-85
2022/05/12 03:40:17;;;;;;;22.83;15.07;;;15.70;76.50;;;;;;5053592;28;20203;-84
2022/05/12 03:42:43;;;;;;;22.52;14.48;;;15.70;76.60;;;;;;5066989;28;20176;-85
2022/05/12 03:45:11;;;;;;;23.67;14.52;;;15.70;76.50;;;;;;5083852;28;20181;-85
2022/05/12 03:47:38;;;;;;;29.83;14.73;;;15.70;76.40;;;;;;5065497;28;20200;-85
2022/05/12 03:50:11;;;;;;;21.15;11.90;;;15.70;76.20;;;;;;5065012;28;20195;-85
2022/05/12 03:52:37;;;;;;;25.33;15.68;;;15.70;76.20;;;;;;5068136;28;20190;-86
2022/05/12 03:55:04;;;;;;;27.27;13.93;;;15.70;76.20;;;;;;5085858;28;20266;-86
2022/05/12 03:57:30;;;;;;;25.05;14.35;;;15.70;76.20;;;;;;5082284;28;20217;-85
2022/05/12 03:59:56;;;;;;;20.33;13.00;;;15.70;76.10;;;;;;5082209;28;20199;-86
2022/05/12 04:02:23;;;;;;;28.65;13.85;;;15.60;76.10;;;;;;5106197;28;20457;-85
2022/05/12 04:04:49;;;;;;;20.30;12.63;;;15.60;76.10;;;;;;5087815;28;20186;-86
2022/05/12 04:07:18;;;;;;;33.38;15.80;;;15.60;76.10;;;;;;5088163;28;20218;-85
2022/05/12 04:09:44;;;;;;;26.35;12.93;;;15.60;76.40;;;;;;5086097;28;20294;-85
2022/05/12 04:12:11;;;;;;;33.45;12.68;;;15.60;76.30;;;;;;5084287;28;20656;-85
2022/05/12 04:14:39;;;;;;;32.17;13.85;;;15.60;76.20;;;;;;5082793;28;20206;-84
2022/05/12 04:17:07;;;;;;;32.45;12.57;;;15.60;75.90;;;;;;5083491;28;20171;-84
2022/05/12 04:19:32;;;;;;;26.33;13.93;;;15.60;75.80;;;;;;5083861;28;20210;-84
2022/05/12 04:21:58;;;;;;;23.43;13.03;;;15.60;75.70;;;;;;5101775;28;20192;-85
2022/05/12 04:24:24;;;;;;;22.50;12.57;;;15.60;75.80;;;;;;5120365;28;20495;-85
2022/05/12 04:26:50;;;;;;;22.77;13.10;;;15.60;76.40;;;;;;5083675;28;20414;-85
2022/05/12 04:29:16;;;;;;;26.70;14.65;;;15.50;75.50;;;;;;5084218;28;20191;-86
2022/05/12 04:31:42;;;;;;;26.92;13.02;;;15.50;75.70;;;;;;5088184;28;20191;-85
2022/05/12 04:36:54;;;;;;;25.05;12.65;;;15.50;75.80;;;;;;5102588;28;20342;-86
2022/05/12 04:39:20;;;;;;;25.17;12.73;;;15.50;76.00;;;;;;5094506;28;20273;-84
2022/05/12 04:41:46;;;;;;;27.08;12.10;;;15.50;75.80;;;;;;5093777;28;20612;-85
2022/05/12 04:44:13;;;;;;;25.20;13.07;;;15.60;75.80;;;;;;5086623;28;20644;-85
2022/05/12 04:46:40;;;;;;;21.90;12.55;;;15.50;75.70;;;;;;5099121;28;20171;-84
2022/05/12 04:49:08;;;;;;;19.67;10.75;;;15.60;75.60;;;;;;5100330;28;20238;-85
2022/05/12 04:51:34;;;;;;;19.25;11.75;;;15.60;75.40;;;;;;5082455;28;20183;-85
2022/05/12 04:54:09;;;;;;;22.90;12.07;;;15.70;74.90;;;;;;5088733;28;20184;-84
2022/05/12 04:56:40;;;;;;;20.67;11.15;;;15.80;74.40;;;;;;5083142;28;20504;-85
2022/05/12 04:59:08;;;;;;;21.10;10.98;;;15.80;74.00;;;;;;5105979;28;20212;-87
2022/05/12 05:01:34;;;;;;;19.08;10.07;;;15.90;73.70;;;;;;5100041;28;20195;-84
2022/05/12 05:04:03;;;;;;;23.50;10.70;;;15.90;73.60;;;;;;5079137;28;20632;-84
2022/05/12 05:06:30;;;;;;;26.52;11.60;;;15.90;73.70;;;;;;5078279;28;20179;-85
2022/05/12 05:08:56;;;;;;;21.58;10.68;;;15.90;73.80;;;;;;5077984;28;20691;-82
2022/05/12 05:11:22;;;;;;;24.20;11.57;;;16.00;73.50;;;;;;5077760;28;20192;-84
2022/05/12 05:13:48;;;;;;;17.55;10.25;;;16.00;73.10;;;;;;5077878;28;20224;-84
2022/05/12 05:16:15;;;;;;;22.02;11.93;;;16.00;73.00;;;;;;5095668;28;20179;-85
2022/05/12 05:18:41;;;;;;;20.55;11.35;;;16.10;73.20;;;;;;5075309;28;20286;-84
2022/05/12 05:24:55;;;;;;;21.33;12.10;;;16.30;72.10;;;;;;5095270;28;20214;-83
2022/05/12 05:27:21;;;;;;;20.08;10.85;;;16.40;72.10;;;;;;5091689;28;20164;-85
2022/05/12 05:29:48;;;;;;;18.42;10.75;;;16.50;71.80;;;;;;5060663;28;20192;-84
2022/05/12 05:32:14;;;;;;;20.08;10.13;;;17.10;70.80;;;;;;5060319;28;20181;-84
2022/05/12 05:34:39;;;;;;;23.07;8.37;;;17.60;69.00;;;;;;5073895;28;20179;-84
2022/05/12 05:37:05;;;;;;;18.60;8.43;;;18.40;65.70;;;;;;5117225;28;20171;-84
2022/05/12 05:39:31;;;;;;;25.07;8.53;;;18.80;64.10;;;;;;5097956;28;20567;-83
2022/05/12 05:42:01;;;;;;;15.63;9.90;;;19.20;63.20;;;;;;5083131;28;20203;-87
2022/05/12 05:44:32;;;;;;;15.73;8.60;;;19.40;61.60;;;;;;5096074;28;20535;-84
2022/05/12 05:47:01;;;;;;;15.55;8.23;;;19.50;60.30;;;;;;5115832;28;20151;-84
2022/05/12 05:49:28;;;;;;;14.88;8.02;;;19.70;60.00;;;;;;5096588;28;20285;-84
2022/05/12 05:54:58;;;;;;;13.90;7.63;;;19.90;58.70;;;;;;5100957;28;20495;-85
2022/05/12 05:57:26;;;;;;;15.70;8.43;;;20.60;57.00;;;;;;5114277;28;20408;-85
2022/05/12 05:59:55;;;;;;;14.93;7.17;;;20.60;56.10;;;;;;5085764;28;20814;-84
2022/05/12 06:02:21;;;;;;;14.47;8.37;;;20.80;56.30;;;;;;5088150;28;20508;-84
2022/05/12 06:04:47;;;;;;;17.10;7.70;;;21.00;55.00;;;;;;5080904;28;20417;-83
2022/05/12 06:07:14;;;;;;;16.07;7.73;;;21.20;54.80;;;;;;5099686;28;20186;-84
2022/05/12 06:09:41;;;;;;;12.87;6.37;;;21.70;53.40;;;;;;5099750;28;20849;-85
2022/05/12 06:12:11;;;;;;;23.93;8.60;;;22.00;52.50;;;;;;5059082;28;20445;-84
2022/05/12 06:14:37;;;;;;;11.40;7.60;;;22.10;50.70;;;;;;5059245;28;20450;-84
2022/05/12 06:17:03;;;;;;;13.50;7.70;;;21.40;52.50;;;;;;5073455;28;20434;-84
2022/05/12 06:19:29;;;;;;;15.50;8.40;;;21.10;53.60;;;;;;5088461;28;21137;-85
2022/05/12 06:21:55;;;;;;;20.33;9.00;;;20.80;54.30;;;;;;5118910;28;20565;-84
2022/05/12 06:24:21;;;;;;;16.77;7.80;;;20.90;54.90;;;;;;5099612;28;20177;-84
2022/05/12 06:26:46;;;;;;;11.87;7.00;;;20.80;54.70;;;;;;5099139;28;20208;-85
2022/05/12 06:29:12;;;;;;;17.30;7.00;;;21.00;55.00;;;;;;5098390;28;20433;-84
2022/05/12 06:31:41;;;;;;;13.10;7.60;;;21.00;54.10;;;;;;5098881;28;20262;-85
2022/05/12 06:34:06;;;;;;;20.37;8.63;;;21.00;54.00;;;;;;5116969;28;20775;-85
2022/05/12 06:36:32;;;;;;;15.27;7.57;;;21.20;53.70;;;;;;5100451;28;20422;-85
2022/05/12 06:38:58;;;;;;;16.47;6.93;;;21.30;53.60;;;;;;5100107;28;20201;-85
2022/05/12 06:41:26;;;;;;;15.40;7.27;;;21.30;53.10;;;;;;5085267;28;20831;-85
2022/05/12 06:43:53;;;;;;;15.63;7.50;;;21.60;52.50;;;;;;5112594;28;20167;-84
2022/05/12 06:46:20;;;;;;;11.20;6.90;;;22.00;51.50;;;;;;5107833;28;20480;-85
2022/05/12 06:48:50;;;;;;;16.57;8.03;;;21.80;50.90;;;;;;5089478;28;20454;-85
2022/05/12 06:51:17;;;;;;;13.63;7.00;;;21.90;50.20;;;;;;5105119;28;20440;-85
2022/05/12 06:53:43;;;;;;;14.90;7.23;;;21.90;50.00;;;;;;5104000;28;20503;-86
2022/05/12 06:56:09;;;;;;;16.20;7.50;;;22.00;49.30;;;;;;5103675;28;20421;-85
2022/05/12 06:58:36;;;;;;;13.20;7.00;;;21.80;49.70;;;;;;5101564;28;20514;-85
2022/05/12 07:01:03;;;;;;;7.60;5.13;;;21.70;49.50;;;;;;5103072;28;20484;-85
2022/05/12 07:03:29;;;;;;;12.20;6.43;;;21.80;49.70;;;;;;5105305;28;20517;-87
2022/05/12 07:05:56;;;;;;;9.83;5.57;;;21.60;50.00;;;;;;5099611;28;20427;-86
2022/05/12 07:08:22;;;;;;;9.87;5.37;;;21.70;50.10;;;;;;5103522;28;20436;-89
2022/05/12 07:10:48;;;;;;;8.70;4.80;;;21.90;49.10;;;;;;5118294;28;20447;-84
2022/05/12 07:13:19;;;;;;;13.20;5.40;;;22.20;47.50;;;;;;5118012;28;20175;-85
2022/05/12 07:15:49;;;;;;;11.30;4.93;;;22.20;47.10;;;;;;5111616;28;20413;-85
2022/05/12 07:18:19;;;;;;;10.90;5.20;;;21.70;47.30;;;;;;5102038;28;20444;-86
2022/05/12 07:28:58;;;;;;;8.93;4.07;;;20.20;50.40;;;;;;5119502;28;20435;-87
2022/05/12 07:31:24;;;;;;;10.03;4.40;;;19.70;51.10;;;;;;5102073;28;20447;-85
2022/05/12 07:33:49;;;;;;;10.90;4.13;;;19.50;52.10;;;;;;5104058;28;20205;-85
2022/05/12 07:36:25;;;;;;;12.40;4.97;;;19.50;53.00;;;;;;5101196;28;20179;-85
2022/05/12 07:38:52;;;;;;;8.77;4.05;;;19.30;52.10;;;;;;5104305;28;20195;-85
2022/05/12 07:41:19;;;;;;;6.32;5.10;;;18.90;51.80;;;;;;5101306;28;20248;-88
2022/05/12 07:43:47;;;;;;;12.45;5.28;;;18.60;52.80;;;;;;5101071;28;20189;-84
2022/05/12 07:46:16;;;;;;;12.18;5.15;;;18.50;53.90;;;;;;5123540;28;20172;-86
2022/05/12 07:48:42;;;;;;;9.13;4.35;;;18.30;54.20;;;;;;5120440;28;20212;-84
2022/05/12 07:51:09;;;;;;;6.95;4.05;;;18.20;55.10;;;;;;5101167;28;20175;-84
2022/05/12 07:53:35;;;;;;;9.30;4.15;;;18.30;55.70;;;;;;5119174;28;20674;-85
2022/05/12 07:56:04;;;;;;;9.05;3.95;;;18.20;54.90;;;;;;5101201;28;20226;-83
2022/05/12 07:58:30;;;;;;;10.70;4.63;;;18.30;54.80;;;;;;5100355;28;20191;-84
2022/05/12 08:00:57;;;;;;;9.15;4.25;;;18.70;52.60;;;;;;5119243;28;20207;-84
2022/05/12 08:03:23;;;;;;;9.77;4.45;;;18.80;51.10;;;;;;5118673;28;20163;-84
2022/05/12 08:05:50;;;;;;;10.32;3.58;;;18.60;52.80;;;;;;5101850;28;20175;-85
2022/05/12 08:08:16;;;;;;;11.13;4.60;;;18.40;53.30;;;;;;5101518;28;20191;-85
2022/05/12 08:10:42;;;;;;;9.65;4.05;;;18.30;52.90;;;;;;5119028;28;20262;-85
2022/05/12 08:13:14;;;;;;;9.97;4.30;;;18.50;52.40;;;;;;5120164;28;20194;-85
2022/05/12 08:15:46;;;;;;;7.68;3.70;;;18.40;52.90;;;;;;5101181;28;20397;-84
2022/05/12 08:18:13;;;;;;;7.68;3.60;;;18.40;53.50;;;;;;5101747;28;20236;-86
2022/05/12 08:20:39;;;;;;;7.50;3.20;;;18.40;52.90;;;;;;5102046;28;20265;-84
2022/05/12 08:23:06;;;;;;;5.82;2.88;;;18.60;51.20;;;;;;5088673;28;20176;-85
2022/05/12 08:25:32;;;;;;;8.88;4.10;;;18.90;49.00;;;;;;5082255;28;20180;-84
2022/05/12 08:27:57;;;;;;;9.00;4.00;;;19.10;48.40;;;;;;5088444;28;20235;-84
2022/05/12 08:30:23;;;;;;;7.43;3.97;;;18.90;49.30;;;;;;5091845;28;20190;-89
2022/05/12 08:32:49;;;;;;;8.73;3.07;;;18.80;50.60;;;;;;5091654;28;20190;-87
2022/05/12 08:35:15;;;;;;;6.00;2.90;;;19.10;48.50;;;;;;5085139;28;20217;-85
2022/05/12 08:37:41;;;;;;;6.63;2.67;;;18.90;49.20;;;;;;5098908;28;20605;-85
2022/05/12 08:40:14;;;;;;;10.45;4.25;;;19.00;49.20;;;;;;5079378;28;20514;-86
2022/05/12 08:42:49;;;;;;;9.85;3.67;;;19.00;48.30;;;;;;5095582;28;20168;-87
2022/05/12 08:45:18;;;;;;;7.85;3.30;;;19.00;49.50;;;;;;5077848;28;20179;-84
2022/05/12 08:47:47;;;;;;;4.47;3.58;;;19.00;49.20;;;;;;5078221;28;20213;-86
2022/05/12 08:50:28;;;;;;;6.25;2.85;;;19.10;47.70;;;;;;5077984;28;20196;-87
2022/05/12 08:53:02;;;;;;;7.78;3.28;;;19.50;46.10;;;;;;5078468;28;20582;-86
2022/05/12 08:55:39;;;;;;;4.07;2.20;;;19.60;44.90;;;;;;5080833;28;20635;-86
2022/05/12 08:58:08;;;;;;;6.25;2.90;;;19.60;44.80;;;;;;5078523;28;20179;-86
2022/05/12 09:01:00;;;;;;;5.80;2.45;;;19.80;44.30;;;;;;5078644;28;20200;-86
2022/05/12 09:03:50;;;;;;;5.13;2.40;;;19.80;43.60;;;;;;5078964;28;20300;-86
2022/05/12 09:06:26;;;;;;;3.97;2.15;;;19.70;44.40;;;;;;5079396;28;20180;-86
2022/05/12 09:08:55;;;;;;;5.35;3.13;;;19.70;44.80;;;;;;5078993;28;20659;-87
2022/05/12 09:11:27;;;;;;;2.83;2.40;;;20.00;43.50;;;;;;5079331;28;20187;-87
2022/05/12 09:13:53;;;;;;;4.73;2.10;;;20.00;43.20;;;;;;5078599;28;20460;-86
2022/05/12 09:16:24;;;;;;;7.10;2.53;;;20.00;43.60;;;;;;5078790;28;20422;-86
2022/05/12 09:18:52;;;;;;;4.27;2.20;;;20.20;42.90;;;;;;5079588;28;20433;-87
2022/05/12 09:21:26;;;;;;;10.13;2.47;;;20.30;42.60;;;;;;5077964;28;20479;-85
2022/05/12 09:23:53;;;;;;;4.33;2.20;;;20.30;42.20;;;;;;5078268;28;20413;-86
2022/05/12 09:26:46;;;;;;;3.97;2.07;;;20.50;41.40;;;;;;5078466;28;20444;-86
2022/05/12 09:29:27;;;;;;;5.10;2.37;;;20.60;40.80;;;;;;5081540;28;20965;-87
2022/05/12 09:31:56;;;;;;;7.57;2.33;;;20.40;41.80;;;;;;5085918;28;20402;-86
2022/05/12 09:34:36;;;;;;;3.53;1.77;;;20.50;41.50;;;;;;5089078;28;20444;-86
2022/05/12 09:37:20;;;;;;;5.00;1.93;;;20.30;41.40;;;;;;5086332;28;20410;-87
2022/05/12 09:39:52;;;;;;;7.87;2.70;;;19.90;41.60;;;;;;5093575;28;20468;-85
2022/05/12 09:42:40;;;;;;;7.07;2.47;;;19.70;42.30;;;;;;5100039;28;20541;-86
2022/05/12 09:45:19;;;;;;;8.27;1.92;;;19.60;42.50;;;;;;5099539;28;20574;-86
2022/05/12 09:47:45;;;;;;;10.57;2.42;;;19.70;42.90;;;;;;5079977;28;20175;-86
2022/05/12 09:50:16;;;;;;;7.57;2.63;;;19.70;42.10;;;;;;5078303;28;20226;-86
2022/05/12 09:53:06;;;;;;;6.80;2.58;;;19.70;42.20;;;;;;5095268;28;20386;-86
2022/05/12 09:55:41;;;;;;;6.00;1.93;;;19.80;43.30;;;;;;5093981;28;20188;-87
2022/05/12 09:58:33;;;;;;;3.43;1.60;;;20.20;41.60;;;;;;5076802;28;20501;-85
2022/05/12 10:01:21;;;;;;;8.60;2.63;;;20.40;42.30;;;;;;5078583;28;20461;-86
2022/05/12 10:09:26;;;;;;;4.57;1.70;;;20.20;41.30;;;;;;5097666;28;20475;-86
2022/05/12 10:12:16;;;;;;;5.10;1.87;;;20.20;41.00;;;;;;5082338;28;20508;-86
2022/05/12 10:15:07;;;;;;;3.83;1.80;;;20.20;40.70;;;;;;5081143;28;20938;-87
2022/05/12 10:17:53;;;;;;;7.40;1.93;;;20.30;40.60;;;;;;5097227;28;20493;-86
2022/05/12 10:20:22;;;;;;;5.90;1.70;;;20.40;40.10;;;;;;5078927;28;20437;-85
2022/05/12 10:23:07;;;;;;;7.23;2.33;;;20.30;39.00;;;;;;5097031;28;20420;-86
2022/05/12 10:25:59;;;;;;;3.60;1.70;;;20.20;39.90;;;;;;5077994;28;20406;-86
2022/05/12 10:28:44;;;;;;;2.70;1.73;;;20.20;39.50;;;;;;5096673;28;20429;-86
2022/05/12 10:31:36;;;;;;;7.40;2.30;;;19.90;40.60;;;;;;5077950;28;20808;-85
2022/05/12 10:34:20;;;;;;;3.57;1.93;;;19.90;41.60;;;;;;5077925;28;20438;-85
2022/05/12 10:36:52;;;;;;;4.33;1.67;;;20.20;41.10;;;;;;5079279;28;20441;-86
2022/05/12 10:39:28;;;;;;;4.27;2.13;;;20.40;40.70;;;;;;5078214;28;20924;-86
2022/05/12 10:42:00;;;;;;;5.97;2.00;;;20.40;40.10;;;;;;5078501;28;20464;-85
2022/05/12 10:44:37;;;;;;;3.63;1.87;;;20.40;39.70;;;;;;5076687;28;20475;-85
2022/05/12 10:47:15;;;;;;;3.70;1.70;;;20.50;40.10;;;;;;5094827;28;20413;-86
2022/05/12 10:49:58;;;;;;;3.03;1.83;;;20.80;39.20;;;;;;5076753;28;20441;-85
2022/05/12 10:52:52;;;;;;;10.90;2.37;;;20.70;38.80;;;;;;5078785;28;20932;-85
2022/05/12 10:55:18;;;;;;;3.43;1.50;;;20.70;38.60;;;;;;5041529;28;20467;-85
2022/05/12 10:58:38;;;;;;;2.20;1.40;;;20.70;38.70;;;;;;5087551;28;20447;-85
2022/05/12 11:01:16;;;;;;;7.27;1.90;;;20.60;38.80;;;;;;4990621;28;20458;-85
2022/05/12 11:04:05;;;;;;;4.07;1.50;;;21.00;37.50;;;;;;5078985;28;20758;-85
2022/05/12 11:06:36;;;;;;;3.60;1.93;;;21.00;37.30;;;;;;5095378;28;20398;-85
2022/05/12 11:09:34;;;;;;;5.07;2.00;;;20.90;37.40;;;;;;5076865;28;20441;-86
2022/05/12 11:12:26;;;;;;;7.37;2.10;;;20.80;38.40;;;;;;5076391;28;20414;-86
2022/05/12 11:15:02;;;;;;;3.57;1.40;;;21.00;38.80;;;;;;5081189;28;20418;-88
2022/05/12 11:17:41;;;;;;;6.00;2.03;;;21.40;38.50;;;;;;5081644;28;20982;-86
2022/05/12 11:20:18;;;;;;;4.40;1.40;;;21.90;37.20;;;;;;5107387;28;20429;-86
2022/05/12 11:23:08;;;;;;;8.97;2.53;;;21.90;37.40;;;;;;5081655;28;20407;-87
2022/05/12 11:26:00;;;;;;;6.20;1.93;;;22.10;36.30;;;;;;5081485;28;20408;-87
2022/05/12 11:32:02;;;;;;;5.43;1.87;;;22.00;36.40;;;;;;5098160;28;20389;-86
2022/05/12 11:34:29;;;;;;;6.63;2.33;;;22.00;36.70;;;;;;5079642;28;20433;-86
2022/05/12 11:36:55;;;;;;;2.43;1.67;;;21.90;37.00;;;;;;5097856;28;20402;-86
2022/05/12 11:39:23;;;;;;;4.70;2.20;;;22.30;36.40;;;;;;5096903;28;20914;-86
2022/05/12 11:42:06;;;;;;;3.83;1.80;;;22.20;36.30;;;;;;5078718;28;20499;-85
2022/05/12 11:44:39;;;;;;;6.20;1.80;;;22.50;34.90;;;;;;5082324;28;20499;-86
2022/05/12 11:47:26;;;;;;;3.00;2.00;;;22.30;36.00;;;;;;5079441;28;21009;-86
2022/05/12 11:50:13;;;;;;;11.57;2.37;;;22.30;37.60;;;;;;5097370;28;20465;-86
2022/05/12 11:52:48;;;;;;;4.77;2.70;;;22.30;37.00;;;;;;5079021;28;20409;-85
2022/05/12 11:55:31;;;;;;;4.77;1.93;;;22.40;37.40;;;;;;5078878;28;20500;-86
2022/05/12 11:57:57;;;;;;;7.07;2.10;;;22.30;38.10;;;;;;5078901;28;20417;-87
2022/05/12 12:00:35;;;;;;;4.30;2.13;;;22.40;38.50;;;;;;5078482;28;20421;-87
2022/05/12 12:03:27;;;;;;;5.90;2.70;;;22.80;37.00;;;;;;5081186;28;20471;-86
2022/05/12 12:05:53;;;;;;;3.73;2.00;;;23.20;35.50;;;;;;5078023;28;20425;-86
2022/05/12 12:08:30;;;;;;;8.20;3.00;;;23.30;35.60;;;;;;5083287;28;20430;-86
2022/05/12 12:11:15;;;;;;;7.30;2.40;;;23.00;36.30;;;;;;5097002;28;20210;-86
2022/05/12 12:13:45;;;;;;;5.07;2.53;;;22.90;36.70;;;;;;5116223;28;20432;-86
2022/05/12 12:16:21;;;;;;;5.70;2.37;;;23.00;35.80;;;;;;5094875;28;20424;-87
2022/05/12 12:18:56;;;;;;;3.70;2.00;;;22.90;36.30;;;;;;5086311;28;20442;-87
2022/05/12 12:21:35;;;;;;;5.53;2.00;;;22.80;35.70;;;;;;5114502;28;20452;-86
2022/05/12 12:24:39;;;;;;;5.13;1.73;;;23.20;33.60;;;;;;5095671;28;20422;-83
2022/05/12 12:27:28;;;;;;;4.50;1.70;;;23.00;34.50;;;;;;5077463;28;20517;-85
2022/05/12 12:29:54;;;;;;;7.00;2.20;;;23.20;35.40;;;;;;5079981;28;20418;-84
2022/05/12 12:32:34;;;;;;;6.73;2.37;;;23.40;34.80;;;;;;5097018;28;20414;-85
2022/05/12 12:35:14;;;;;;;8.37;1.90;;;23.50;35.00;;;;;;5060776;28;21031;-85
2022/05/12 12:37:48;;;;;;;8.33;2.90;;;23.40;33.90;;;;;;5058556;28;20435;-86
2022/05/12 12:40:32;;;;;;;6.23;2.40;;;23.50;34.00;;;;;;5078041;28;20902;-85
2022/05/12 12:43:17;;;;;;;3.37;1.90;;;23.50;34.60;;;;;;5072601;28;20477;-87
2022/05/12 12:45:51;;;;;;;5.10;2.20;;;23.40;35.40;;;;;;5086340;28;20399;-86
2022/05/12 12:48:40;;;;;;;5.30;2.03;;;23.60;33.60;;;;;;5061668;28;20430;-85
2022/05/12 12:51:06;;;;;;;8.93;2.30;;;23.60;33.50;;;;;;5065136;28;20415;-86
2022/05/12 12:56:30;;;;;;;4.03;2.23;;;23.60;33.50;;;;;;5079045;28;20836;-86
2022/05/12 12:59:02;;;;;;;6.50;1.97;;;23.60;33.70;;;;;;5059261;28;20433;-85
2022/05/12 13:01:55;;;;;;;5.73;2.53;;;23.40;34.20;;;;;;5059169;28;20453;-86
2022/05/12 13:04:27;;;;;;;8.37;2.50;;;23.30;34.20;;;;;;5077640;28;20453;-86
2022/05/12 13:06:57;;;;;;;3.90;1.73;;;23.10;34.50;;;;;;5060618;28;20409;-86
2022/05/12 13:09:32;;;;;;;6.07;2.30;;;23.30;34.30;;;;;;5041067;28;20443;-85
2022/05/12 13:12:19;;;;;;;4.33;2.10;;;23.10;34.50;;;;;;5058033;28;20421;-84
2022/05/12 13:14:47;;;;;;;7.50;2.87;;;22.90;34.40;;;;;;5043293;28;20423;-86
2022/05/12 13:17:26;;;;;;;7.67;2.43;;;22.90;35.10;;;;;;5140427;27;20537;-87
2022/05/12 13:19:55;;;;;;;5.27;2.20;;;22.80;35.30;;;;;;5138356;28;20481;-87
2022/05/12 13:22:40;;;;;;;3.07;2.00;;;22.70;35.90;;;;;;5129116;28;20175;-87
2022/05/12 13:25:09;;;;;;;6.97;2.40;;;23.00;34.90;;;;;;5118787;28;20412;-85
2022/05/12 13:27:38;;;;;;;8.63;2.27;;;22.90;35.10;;;;;;5115665;28;20420;-84